Time;durP1;ratioP1;P1;durP2;ratioP2;P2;SDS_P1;SDS_P2;PMS_P1;PMS_P2;Temp;Humidity;BMP_temperature;BMP_pressure;BME280_temperature;BME280_humidity;BME280_pressure;Samples;Min_cycle;Max_cycle;Signal;HPM_P1;HPM_P2
2021/01/14 00:00:38;;;;;;;71.87;31.23;;;;;;;-3.21;89.50;97990.48;1780339;80;21156;-73
2021/01/14 00:03:11;;;;;;;67.97;29.97;;;;;;;-3.23;89.42;97989.94;1756595;80;21139;-74
2021/01/14 00:05:40;;;;;;;76.25;32.38;;;;;;;-3.27;89.46;97986.70;1780421;80;21485;-75
2021/01/14 00:08:09;;;;;;;75.95;32.88;;;;;;;-3.28;89.64;97985.09;1780259;80;22187;-73
2021/01/14 00:10:37;;;;;;;84.25;35.63;;;;;;;-3.25;89.89;97981.87;1780204;80;20997;-73
2021/01/14 00:13:06;;;;;;;78.02;33.20;;;;;;;-3.25;89.93;97982.69;1780541;80;21128;-73
2021/01/14 00:15:34;;;;;;;73.65;32.23;;;;;;;-3.23;89.93;97985.91;1759102;80;21253;-73
2021/01/14 00:18:02;;;;;;;63.42;28.42;;;;;;;-3.22;89.82;97985.38;1736854;82;21156;-74
2021/01/14 00:20:30;;;;;;;64.58;27.52;;;;;;;-3.22;89.85;97986.72;1707457;83;22072;-74
2021/01/14 00:22:57;;;;;;;60.28;28.20;;;;;;;-3.24;89.72;97988.86;1736749;82;21463;-73
2021/01/14 00:25:25;;;;;;;60.25;28.20;;;;;;;-3.25;89.72;97988.06;1705932;84;21026;-73
2021/01/14 00:27:52;;;;;;;55.00;24.40;;;;;;;-3.25;89.74;97987.25;1736908;82;21140;-73
2021/01/14 00:30:26;;;;;;;58.30;26.02;;;;;;;-3.23;89.80;97991.81;1705980;84;21180;-73
2021/01/14 00:32:56;;;;;;;58.17;27.27;;;;;;;-3.24;89.76;97991.55;1736764;82;21371;-74
2021/01/14 00:35:29;;;;;;;58.73;27.00;;;;;;;-3.25;89.74;97995.30;1705829;84;21034;-73
2021/01/14 00:37:56;;;;;;;62.65;27.10;;;;;;;-3.24;89.86;97993.69;1736884;82;21544;-76
2021/01/14 00:40:26;;;;;;;62.23;28.07;;;;;;;-3.23;89.78;97995.84;1705936;84;21182;-74
2021/01/14 00:43:09;;;;;;;67.80;28.73;;;;;;;-3.23;89.75;97989.94;1737007;82;21549;-75
2021/01/14 00:45:37;;;;;;;71.22;29.12;;;;;;;-3.23;89.67;97985.11;1705885;84;21386;-76
2021/01/14 00:48:06;;;;;;;79.20;34.25;;;;;;;-3.23;89.65;97983.23;1736701;82;21002;-76
2021/01/14 00:50:34;;;;;;;69.40;30.85;;;;;;;-3.24;89.62;97982.16;1705887;84;21026;-75
2021/01/14 00:53:02;;;;;;;72.35;31.60;;;;;;;-3.24;89.67;97985.64;1736697;81;21170;-75
2021/01/14 00:55:30;;;;;;;80.57;32.17;;;;;;;-3.23;89.71;97984.58;1705916;84;21192;-75
2021/01/14 00:57:57;;;;;;;61.45;28.10;;;;;;;-3.21;89.72;97977.59;1707342;82;21822;-75
2021/01/14 01:00:24;;;;;;;67.78;31.25;;;;;;;-3.19;89.66;97982.97;1744679;82;20994;-73
2021/01/14 01:02:52;;;;;;;65.05;30.30;;;;;;;-3.21;89.42;97978.94;1705891;84;21592;-73
2021/01/14 01:05:21;;;;;;;76.90;34.73;;;;;;;-3.25;89.40;97984.56;1707361;84;21176;-74
2021/01/14 01:07:50;;;;;;;70.45;31.40;;;;;;;-3.27;89.46;97980.80;1744812;82;21038;-74
2021/01/14 01:10:18;;;;;;;81.60;35.78;;;;;;;-3.27;89.57;97977.31;1705799;84;21356;-74
2021/01/14 01:12:54;;;;;;;84.75;33.85;;;;;;;-3.25;89.74;97977.86;1707338;83;21009;-75
2021/01/14 01:15:21;;;;;;;72.20;31.40;;;;;;;-3.25;89.71;97975.98;1744689;82;21892;-76
2021/01/14 01:17:49;;;;;;;63.95;29.27;;;;;;;-3.22;89.75;97986.19;1698107;83;21084;-76
2021/01/14 01:20:16;;;;;;;70.97;28.52;;;;;;;-3.24;89.69;97977.59;1764556;80;21057;-75
2021/01/14 01:22:44;;;;;;;71.35;29.90;;;;;;;-3.23;89.52;97977.86;1764340;79;21101;-76
2021/01/14 01:25:13;;;;;;;71.95;31.17;;;;;;;-3.27;89.36;97974.09;1764474;80;21595;-75
2021/01/14 01:27:40;;;;;;;74.22;31.27;;;;;;;-3.28;89.35;97971.14;1764494;79;21129;-75
2021/01/14 01:30:09;;;;;;;83.97;35.30;;;;;;;-3.27;89.40;97969.27;1790721;79;21056;-75
2021/01/14 01:32:37;;;;;;;74.17;30.32;;;;;;;-3.26;89.42;97972.22;1795922;79;21072;-75
2021/01/14 01:35:06;;;;;;;72.78;29.50;;;;;;;-3.24;89.50;97974.10;1795958;79;21222;-75
2021/01/14 01:37:33;;;;;;;74.12;30.77;;;;;;;-3.23;89.42;97973.84;1795889;78;22273;-76
2021/01/14 01:40:01;;;;;;;69.58;30.17;;;;;;;-3.19;89.40;97968.75;1795882;79;21484;-77
2021/01/14 01:42:29;;;;;;;66.10;30.65;;;;;;;-3.16;89.36;97968.22;1795924;79;21056;-76
2021/01/14 01:45:00;;;;;;;78.28;33.18;;;;;;;-3.15;89.37;97969.83;1796024;79;20982;-76
2021/01/14 01:47:32;;;;;;;89.85;35.28;;;;;;;-3.12;89.38;97960.71;1795950;79;22602;-78
2021/01/14 01:49:55;;;;;;;69.60;29.55;;;;;;;-3.10;89.26;97968.50;1750993;79;21132;-78
2021/01/14 01:52:22;;;;;;;65.70;28.60;;;;;;;-3.08;89.26;97970.38;1793821;79;21057;-75
2021/01/14 01:54:49;;;;;;;53.87;26.70;;;;;;;-3.07;89.25;97966.09;1795365;79;21042;-75
2021/01/14 01:57:17;;;;;;;71.45;29.77;;;;;;;-3.06;89.19;97969.58;1776231;79;20930;-76
2021/01/14 01:59:45;;;;;;;74.58;29.85;;;;;;;-3.08;89.02;97964.48;1796017;78;21371;-78
2021/01/14 02:02:25;;;;;;;70.30;30.85;;;;;;;-3.08;89.02;97962.33;1795784;79;21643;-78
2021/01/14 02:04:54;;;;;;;63.28;27.58;;;;;;;-3.12;89.03;97959.37;1796012;79;20970;-76
2021/01/14 02:07:49;;;;;;;66.80;27.95;;;;;;;-3.13;89.04;97958.30;1795868;78;20938;-77
2021/01/14 02:10:38;;;;;;;62.65;27.35;;;;;;;-3.18;88.97;97960.43;1795913;79;21607;-78
2021/01/14 02:13:48;;;;;;;65.42;28.05;;;;;;;-3.22;89.14;97958.55;1796121;79;22278;-75
2021/01/14 02:16:16;;;;;;;69.50;28.17;;;;;;;-3.23;89.28;97964.45;1797855;78;21655;-75
2021/01/14 02:18:44;;;;;;;60.23;26.90;;;;;;;-3.23;89.45;97966.32;1819059;78;21566;-75
2021/01/14 02:21:13;;;;;;;72.37;29.70;;;;;;;-3.23;89.48;97969.00;1818851;78;21626;-76
2021/01/14 02:24:08;;;;;;;55.78;25.55;;;;;;;-3.26;89.53;97970.34;1819012;78;20944;-77
2021/01/14 02:26:38;;;;;;;64.72;28.12;;;;;;;-3.24;89.69;97971.42;1819025;78;21535;-77
2021/01/14 02:29:05;;;;;;;64.87;28.12;;;;;;;-3.24;89.83;97973.56;1818965;78;21104;-73
2021/01/14 02:31:33;;;;;;;64.50;26.75;;;;;;;-3.20;89.99;97973.84;1818937;78;21116;-75
2021/01/14 02:34:00;;;;;;;63.30;28.98;;;;;;;-3.20;89.98;97973.31;1818861;78;21052;-78
2021/01/14 02:36:28;;;;;;;66.30;28.83;;;;;;;-3.22;89.95;97974.64;1780594;79;21469;-78
2021/01/14 02:38:55;;;;;;;68.47;29.00;;;;;;;-3.25;90.04;97975.98;1777880;80;21556;-78
2021/01/14 02:41:23;;;;;;;64.37;28.47;;;;;;;-3.26;90.17;97981.61;1755949;81;21125;-76
2021/01/14 02:43:51;;;;;;;69.22;29.57;;;;;;;-3.27;90.20;97978.66;1756122;81;21485;-75
2021/01/14 02:46:19;;;;;;;72.20;32.15;;;;;;;-3.27;90.38;97971.41;1756012;81;21660;-75
2021/01/14 02:49:07;;;;;;;72.92;30.80;;;;;;;-3.24;90.43;97967.39;1730558;81;21184;-75
2021/01/14 02:51:44;;;;;;;70.87;31.75;;;;;;;-3.24;90.48;97968.20;1756142;81;22296;-75
2021/01/14 02:54:11;;;;;;;75.97;31.70;;;;;;;-3.24;90.55;97970.88;1755997;81;21493;-75
2021/01/14 02:56:40;;;;;;;79.95;33.05;;;;;;;-3.23;90.60;97970.34;1730468;81;20943;-77
2021/01/14 02:59:11;;;;;;;82.40;33.98;;;;;;;-3.20;90.83;97965.80;1756068;81;21085;-78
2021/01/14 03:01:39;;;;;;;84.07;36.17;;;;;;;-3.14;90.92;97964.73;1756082;81;21212;-77
2021/01/14 03:04:08;;;;;;;86.10;36.45;;;;;;;-3.12;90.87;97963.93;1755896;81;21175;-76
2021/01/14 03:06:36;;;;;;;88.72;35.63;;;;;;;-3.12;90.72;97958.56;1756041;81;21612;-75
2021/01/14 03:09:04;;;;;;;79.70;35.10;;;;;;;-3.14;90.75;97962.05;1756092;81;21553;-76
2021/01/14 03:11:33;;;;;;;84.70;36.58;;;;;;;-3.12;90.93;97955.88;1756106;81;21112;-75
2021/01/14 03:14:01;;;;;;;92.78;38.08;;;;;;;-3.09;90.98;97955.34;1756046;81;21085;-77
2021/01/14 03:16:29;;;;;;;82.97;36.88;;;;;;;-3.07;91.02;97955.89;1755676;81;21500;-78
2021/01/14 03:18:57;;;;;;;82.00;34.58;;;;;;;-3.05;91.06;97953.74;1750210;82;21070;-77
2021/01/14 03:21:24;;;;;;;90.25;36.38;;;;;;;-3.03;91.06;97954.28;1750133;82;20998;-77
2021/01/14 03:23:52;;;;;;;89.25;36.93;;;;;;;-3.02;91.10;97952.67;1749596;82;21207;-76
2021/01/14 03:26:20;;;;;;;81.37;36.03;;;;;;;-3.02;91.05;97948.65;1750287;81;21137;-75
2021/01/14 03:28:49;;;;;;;92.67;37.80;;;;;;;-3.02;91.08;97946.50;1750121;82;22099;-76
2021/01/14 03:31:18;;;;;;;88.05;37.17;;;;;;;-3.02;91.16;97954.02;1750102;82;20987;-76
2021/01/14 03:33:46;;;;;;;96.55;40.90;;;;;;;-3.00;91.25;97956.44;1750087;82;21105;-75
2021/01/14 03:36:18;;;;;;;100.50;39.05;;;;;;;-3.00;91.25;97953.75;1749983;82;21058;-76
2021/01/14 03:38:46;;;;;;;100.22;42.83;;;;;;;-3.01;91.36;97953.48;1725182;82;21014;-76
2021/01/14 03:41:16;;;;;;;102.67;44.00;;;;;;;-3.01;91.45;97954.83;1750122;81;22379;-77
2021/01/14 03:43:44;;;;;;;102.02;42.10;;;;;;;-3.01;91.57;97954.83;1750086;82;21140;-75
2021/01/14 03:46:21;;;;;;;103.42;40.70;;;;;;;-3.01;91.70;97947.58;1750131;81;21501;-76
2021/01/14 03:48:49;;;;;;;98.27;41.35;;;;;;;-3.00;91.84;97957.24;1750082;82;21046;-76
2021/01/14 03:51:20;;;;;;;99.65;39.03;;;;;;;-2.97;92.05;97957.25;1750093;82;21070;-76
2021/01/14 03:53:52;;;;;;;92.62;39.08;;;;;;;-2.95;92.12;97960.47;1734819;82;21415;-76
2021/01/14 03:56:20;;;;;;;;;;;;;;;-2.93;92.23;97962.89;1722857;83;21171;-74
2021/01/14 03:58:48;;;;;;;97.45;38.10;;;;;;;-2.90;92.37;97956.45;1720214;83;20212;-70
2021/01/14 04:01:22;;;;;;;93.50;37.73;;;;;;;-2.88;92.38;97944.88;1720208;83;21661;-75
2021/01/14 04:03:50;;;;;;;86.82;34.53;;;;;;;-2.90;92.36;97947.05;1730521;82;21061;-76
2021/01/14 04:06:20;;;;;;;87.37;36.83;;;;;;;-2.91;92.37;97946.78;1735783;82;21163;-76
2021/01/14 04:08:46;;;;;;;96.63;39.08;;;;;;;-2.91;92.45;97940.61;1747973;82;21631;-75
2021/01/14 04:11:14;;;;;;;91.57;39.10;;;;;;;-2.91;92.59;97948.13;1748023;82;21608;-76
2021/01/14 04:13:41;;;;;;;86.47;39.13;;;;;;;-2.89;92.71;97947.86;1740207;82;21021;-76
2021/01/14 04:16:12;;;;;;;90.30;38.73;;;;;;;-2.86;92.81;97945.41;1747959;82;21089;-76
2021/01/14 04:18:41;;;;;;;102.95;40.17;;;;;;;-2.85;92.83;97941.66;1758772;81;21368;-77
2021/01/14 04:21:09;;;;;;;93.40;38.00;;;;;;;-2.82;92.99;97934.95;1761448;81;20970;-78
2021/01/14 04:23:37;;;;;;;93.67;37.70;;;;;;;-2.78;93.06;97942.73;1782758;79;21125;-74
2021/01/14 04:26:06;;;;;;;94.45;40.08;;;;;;;-2.75;93.13;97941.66;1795954;79;21575;-76
2021/01/14 04:28:33;;;;;;;93.35;39.48;;;;;;;-2.71;93.13;97945.95;1758080;81;21151;-76
2021/01/14 04:31:01;;;;;;;96.57;39.08;;;;;;;-2.68;93.14;97949.45;1782282;80;22233;-75
2021/01/14 04:33:28;;;;;;;94.05;38.50;;;;;;;-2.67;93.05;97941.13;1795874;78;21619;-76
2021/01/14 04:35:57;;;;;;;88.37;38.63;;;;;;;-2.69;92.93;97935.22;1795982;79;21001;-76
2021/01/14 04:38:26;;;;;;;89.17;37.70;;;;;;;-2.71;92.92;97940.59;1758271;81;21548;-73
2021/01/14 04:41:00;;;;;;;78.28;33.80;;;;;;;-2.72;93.12;97943.81;1782216;80;21129;-73
2021/01/14 04:43:31;;;;;;;86.63;37.35;;;;;;;-2.69;93.24;97939.25;1782117;79;21412;-74
2021/01/14 04:46:06;;;;;;;92.20;39.92;;;;;;;-2.67;93.45;97953.21;1795933;79;20942;-79
2021/01/14 04:48:41;;;;;;;77.82;34.67;;;;;;;-2.65;93.52;97951.60;1795978;79;20985;-75
2021/01/14 04:51:15;;;;;;;87.72;34.98;;;;;;;-2.61;93.59;97945.95;1776839;78;20926;-77
2021/01/14 04:53:46;;;;;;;90.35;37.00;;;;;;;-2.59;93.61;97946.50;1780977;79;21148;-75
2021/01/14 04:56:16;;;;;;;85.25;36.30;;;;;;;-2.59;93.58;97943.81;1764584;81;22685;-77
2021/01/14 04:58:47;;;;;;;92.20;36.08;;;;;;;-2.58;93.57;97941.93;1764521;81;21156;-75
2021/01/14 05:01:23;;;;;;;96.00;38.23;;;;;;;-2.58;93.58;97946.77;1764716;81;21151;-76
2021/01/14 05:03:52;;;;;;;81.22;35.17;;;;;;;-2.56;93.68;97948.64;1764581;80;21036;-74
2021/01/14 05:06:24;;;;;;;86.72;34.20;;;;;;;-2.52;93.74;97946.23;1764623;80;20958;-75
2021/01/14 05:08:58;;;;;;;97.88;39.63;;;;;;;-2.50;93.79;97948.11;1764749;80;21365;-74
2021/01/14 05:11:26;;;;;;;95.60;38.13;;;;;;;-2.48;93.86;97945.42;1763824;81;21559;-76
2021/01/14 05:13:53;;;;;;;93.82;37.08;;;;;;;-2.44;93.90;97947.03;1745429;81;21137;-81
2021/01/14 05:16:21;;;;;;;97.45;39.10;;;;;;;-2.41;94.08;97952.67;1745291;81;21164;-82
2021/01/14 05:18:48;;;;;;;92.80;36.65;;;;;;;-2.40;94.00;97952.94;1764625;81;21152;-83
2021/01/14 05:21:16;;;;;;;85.97;33.23;;;;;;;-2.40;93.96;97954.28;1764588;81;22371;-82
2021/01/14 05:23:44;;;;;;;90.10;36.80;;;;;;;-2.41;93.91;97944.61;1764525;81;21120;-80
2021/01/14 05:26:11;;;;;;;80.83;33.50;;;;;;;-2.39;93.92;97947.02;1764630;80;21029;-83
2021/01/14 05:28:38;;;;;;;89.92;38.70;;;;;;;-2.37;93.93;97940.84;1764444;81;20934;-80
2021/01/14 05:31:19;;;;;;;103.60;40.88;;;;;;;-2.37;93.93;97938.16;1766526;79;21084;-80
2021/01/14 05:33:58;;;;;;;72.50;31.33;;;;;;;-2.35;94.02;97939.49;1777998;79;22082;-81
2021/01/14 05:36:25;;;;;;;65.57;29.98;;;;;;;-2.34;93.96;97938.41;1797410;79;21115;-79
2021/01/14 05:38:53;;;;;;;57.10;27.07;;;;;;;-2.33;93.92;97941.91;1799176;79;21611;-76
2021/01/14 05:41:22;;;;;;;58.90;26.15;;;;;;;-2.32;93.89;97946.20;1770260;79;21099;-77
2021/01/14 05:43:56;;;;;;;49.80;23.35;;;;;;;-2.32;93.86;97943.52;1746235;79;21467;-80
2021/01/14 05:46:30;;;;;;;51.10;22.73;;;;;;;-2.33;93.83;97941.91;1799220;78;22254;-81
2021/01/14 05:48:59;;;;;;;52.58;22.90;;;;;;;-2.32;93.92;97943.52;1799034;79;21472;-77
2021/01/14 05:51:32;;;;;;;49.50;22.00;;;;;;;-2.29;94.03;97944.83;1782496;79;22331;-79
2021/01/14 05:54:06;;;;;;;46.65;20.65;;;;;;;-2.28;94.00;97949.94;1729577;82;24904;-80
2021/01/14 05:56:47;;;;;;;41.40;20.12;;;;;;;-2.25;93.95;97953.97;1788381;79;21100;-77
2021/01/14 05:59:20;;;;;;;45.00;21.57;;;;;;;-2.23;93.92;97957.99;1792372;79;21368;-77
2021/01/14 06:01:57;;;;;;;43.52;20.50;;;;;;;-2.21;93.86;97961.22;1760299;80;21523;-78
2021/01/14 06:04:26;;;;;;;41.88;19.52;;;;;;;-2.21;93.78;97963.09;1789309;79;21001;-75
2021/01/14 06:09:41;;;;;;;39.10;17.37;;;;;;;-2.16;93.62;97958.52;1888322;76;22734;-75
2021/01/14 06:12:11;;;;;;;38.45;18.17;;;;;;;-2.20;93.51;97957.98;1775138;80;21049;-74
2021/01/14 06:14:41;;;;;;;34.90;16.73;;;;;;;-2.20;93.49;97963.37;1746123;81;22300;-75
2021/01/14 06:17:11;;;;;;;37.95;15.75;;;;;;;-2.18;93.52;97966.05;1774883;80;20982;-77
2021/01/14 06:19:40;;;;;;;40.15;18.48;;;;;;;-2.16;93.50;97956.37;1769022;81;21604;-78
2021/01/14 06:22:11;;;;;;;34.05;16.40;;;;;;;-2.15;93.55;97958.79;1785547;79;21013;-76
2021/01/14 06:24:40;;;;;;;39.55;17.40;;;;;;;-2.14;93.54;97963.09;1795031;77;20926;-91
2021/01/14 06:27:10;;;;;;;38.40;17.02;;;;;;;-2.11;93.46;97966.58;1849501;77;21157;-74
2021/01/14 06:29:43;;;;;;;34.80;16.37;;;;;;;-2.10;93.39;97968.73;1814460;79;21174;-77
2021/01/14 06:32:16;;;;;;;31.77;16.07;;;;;;;-2.10;93.26;97970.07;1775738;80;21022;-78
2021/01/14 06:34:50;;;;;;;40.92;18.73;;;;;;;-2.12;93.18;97969.00;1775162;80;20934;-77
2021/01/14 06:37:23;;;;;;;28.40;14.40;;;;;;;-2.13;93.19;97959.32;1774855;80;21179;-80
2021/01/14 06:42:37;;;;;;;29.70;15.60;;;;;;;-2.11;93.07;97959.86;1909697;74;23207;-76
2021/01/14 06:45:09;;;;;;;31.60;15.20;;;;;;;-2.16;93.12;97960.41;1849536;77;20924;-74
2021/01/14 06:47:45;;;;;;;28.07;14.25;;;;;;;-2.14;93.18;97962.28;1849557;77;21757;-80
2021/01/14 06:50:21;;;;;;;32.23;14.73;;;;;;;-2.14;93.12;97967.66;1849639;77;21090;-80
2021/01/14 06:53:06;;;;;;;30.97;15.70;;;;;;;-2.14;93.15;97961.74;1849632;77;21582;-76
2021/01/14 06:55:33;;;;;;;27.82;15.50;;;;;;;-2.12;93.08;97958.24;1806699;78;21115;-77
2021/01/14 06:58:13;;;;;;;25.80;14.03;;;;;;;-2.09;93.00;97966.30;1751240;80;20981;-75
2021/01/14 07:00:46;;;;;;;30.40;15.63;;;;;;;-2.08;92.91;97963.34;1774060;80;21809;-73
2021/01/14 07:03:16;;;;;;;;;;;;;;;-2.07;92.78;97968.98;1825225;77;20956;-72
2021/01/14 07:05:59;;;;;;;28.50;14.13;;;;;;;-2.06;92.72;97969.26;1816160;79;20284;-75
2021/01/14 07:09:01;;;;;;;27.60;14.45;;;;;;;-2.04;92.76;97973.83;1815443;79;21050;-73
2021/01/14 07:11:34;;;;;;;30.35;14.35;;;;;;;-2.02;92.51;97973.02;1816119;79;21027;-71
2021/01/14 07:14:09;;;;;;;25.35;13.28;;;;;;;-2.03;92.31;97980.01;1816123;79;21354;-77
2021/01/14 07:16:37;;;;;;;29.92;14.65;;;;;;;-2.04;92.09;97987.27;1815855;79;21541;-78
2021/01/14 07:19:05;;;;;;;31.27;15.75;;;;;;;-2.05;92.09;97986.20;1761282;78;20959;-85
2021/01/14 07:21:43;;;;;;;32.80;15.83;;;;;;;-2.05;91.96;97991.58;1816070;79;20979;-80
2021/01/14 07:24:20;;;;;;;33.53;15.43;;;;;;;-2.05;91.88;97991.58;1837238;77;20908;-75
2021/01/14 07:26:58;;;;;;;31.25;15.72;;;;;;;-2.05;91.77;97995.61;1849608;77;22178;-71
2021/01/14 07:29:29;;;;;;;26.30;13.95;;;;;;;-2.05;91.63;97991.03;1817477;77;21078;-80
2021/01/14 07:31:58;;;;;;;28.32;15.18;;;;;;;-2.06;91.31;97989.42;1816124;79;21141;-73
2021/01/14 07:34:43;;;;;;;29.50;14.33;;;;;;;-2.07;91.22;97997.22;1816090;79;21570;-78
2021/01/14 07:37:19;;;;;;;28.25;14.07;;;;;;;-2.08;91.09;97992.92;1804916;79;21094;-76
2021/01/14 07:39:56;;;;;;;32.65;14.40;;;;;;;-2.07;91.06;98001.26;1816371;79;22103;-74
2021/01/14 07:42:33;;;;;;;30.70;13.50;;;;;;;-2.06;90.93;98000.72;1811142;78;21122;-73
2021/01/14 07:45:06;;;;;;;31.42;16.17;;;;;;;-2.04;90.92;98003.41;1810726;78;21102;-73
2021/01/14 07:47:36;;;;;;;35.30;17.17;;;;;;;-2.03;90.69;97996.95;1810903;78;21114;-74
2021/01/14 07:50:26;;;;;;;28.27;14.15;;;;;;;-2.01;90.70;98000.17;1810867;79;21047;-74
2021/01/14 07:52:57;;;;;;;27.37;13.10;;;;;;;-1.96;90.61;98009.31;1810577;79;22105;-76
2021/01/14 07:55:31;;;;;;;33.23;15.23;;;;;;;-1.93;90.45;98010.91;1810081;79;21007;-73
2021/01/14 08:01:07;;;;;;;26.52;13.70;;;;;;;-1.86;90.00;98010.63;1873201;75;22940;-74
2021/01/14 08:03:40;;;;;;;26.33;12.95;;;;;;;-1.88;89.84;98022.20;1834269;76;21560;-75
2021/01/14 08:06:35;;;;;;;34.95;15.30;;;;;;;-1.86;89.75;98024.08;1839488;78;21366;-75
2021/01/14 08:09:09;;;;;;;30.43;14.78;;;;;;;-1.85;89.54;98021.66;1839427;78;20892;-73
2021/01/14 08:11:49;;;;;;;35.80;14.55;;;;;;;-1.84;89.38;98026.77;1807264;76;21018;-76
2021/01/14 08:14:22;;;;;;;31.93;14.55;;;;;;;-1.87;89.09;98023.28;1822753;78;21051;-76
2021/01/14 08:16:56;;;;;;;30.08;14.78;;;;;;;-1.87;88.79;98025.97;1812140;76;21028;-80
2021/01/14 08:19:33;;;;;;;27.05;12.95;;;;;;;-1.86;89.09;98024.08;1802015;76;21369;-75
2021/01/14 08:22:10;;;;;;;35.90;15.60;;;;;;;-1.83;88.93;98026.23;1818604;78;20932;-71
2021/01/14 08:24:59;;;;;;;36.38;15.20;;;;;;;-1.82;88.74;98018.42;1841547;78;20976;-75
2021/01/14 08:27:34;;;;;;;34.45;15.80;;;;;;;-1.79;88.76;98027.30;1835332;78;20979;-75
2021/01/14 08:30:07;;;;;;;32.08;14.10;;;;;;;-1.78;88.39;98023.53;1774713;80;21091;-74
2021/01/14 08:32:49;;;;;;;32.67;15.75;;;;;;;-1.81;88.26;98023.53;1774890;80;21507;-73
2021/01/14 08:35:32;;;;;;;33.58;15.28;;;;;;;-1.80;88.32;98028.38;1773663;80;21043;-74
2021/01/14 08:38:16;;;;;;;34.20;16.65;;;;;;;-1.82;88.34;98022.46;1780032;79;21015;-76
2021/01/14 08:40:44;;;;;;;34.40;16.65;;;;;;;-1.80;88.37;98031.06;1801473;79;20928;-72
2021/01/14 08:43:15;;;;;;;49.35;21.60;;;;;;;-1.78;88.40;98029.72;1783155;78;21027;-78
2021/01/14 08:45:54;;;;;;;39.75;20.62;;;;;;;-1.74;88.73;98026.75;1801637;79;21371;-74
2021/01/14 08:48:25;;;;;;;45.80;19.57;;;;;;;-1.64;89.07;98032.61;1808207;79;21519;-75
2021/01/14 08:51:00;;;;;;;36.30;17.35;;;;;;;-1.58;88.90;98019.95;1790068;78;21082;-74
2021/01/14 08:53:34;;;;;;;33.20;16.62;;;;;;;-1.54;88.70;98025.86;1799854;78;21074;-76
2021/01/14 08:56:09;;;;;;;63.78;23.90;;;;;;;-1.52;88.16;98021.01;1731373;82;21033;-75
2021/01/14 08:58:44;;;;;;;90.38;30.55;;;;;;;-1.50;88.08;98024.23;1715749;83;21367;-74
2021/01/14 09:01:23;;;;;;;56.63;23.05;;;;;;;-1.48;87.74;98021.27;1726241;81;21005;-74
2021/01/14 09:03:55;;;;;;;66.85;27.10;;;;;;;-1.50;87.58;98018.85;1761296;80;20960;-75
2021/01/14 09:06:37;;;;;;;36.20;18.43;;;;;;;-1.49;87.56;98018.31;1761976;80;21500;-76
2021/01/14 09:09:07;;;;;;;37.95;17.62;;;;;;;-1.50;87.41;98016.16;1736801;82;21090;-77
2021/01/14 09:11:35;;;;;;;39.30;18.77;;;;;;;-1.46;87.27;98024.49;1725424;82;21204;-75
2021/01/14 09:14:10;;;;;;;46.45;19.67;;;;;;;-1.46;87.19;98023.95;1735704;82;21571;-77
2021/01/14 09:16:39;;;;;;;29.80;15.98;;;;;;;-1.45;87.16;98020.18;1755646;81;21060;-80
2021/01/14 09:19:20;;;;;;;32.70;15.55;;;;;;;-1.44;87.00;98018.30;1755048;81;21709;-75
2021/01/14 09:21:48;;;;;;;33.60;16.40;;;;;;;-1.45;86.76;98016.14;1739938;81;21182;-73
2021/01/14 09:24:18;;;;;;;34.18;15.45;;;;;;;-1.43;86.74;98019.36;1750162;80;21066;-73
2021/01/14 09:26:49;;;;;;;30.72;15.98;;;;;;;-1.43;86.65;98015.33;1741703;81;20927;-75
2021/01/14 09:29:21;;;;;;;34.18;15.58;;;;;;;-1.40;86.55;98009.94;1735189;80;21144;-74
2021/01/14 09:31:50;;;;;;;32.78;16.48;;;;;;;-1.40;86.12;98009.94;1741467;81;21579;-73
2021/01/14 09:34:22;;;;;;;34.05;15.88;;;;;;;-1.38;86.32;98009.92;1745790;81;21001;-73
2021/01/14 09:36:50;;;;;;;41.85;19.42;;;;;;;-1.34;86.41;98009.64;1752572;81;21367;-73
2021/01/14 09:39:18;;;;;;;34.30;17.25;;;;;;;-1.28;86.54;98016.34;1755515;81;20992;-74
2021/01/14 09:41:45;;;;;;;35.55;17.20;;;;;;;-1.21;86.60;98016.86;1755621;80;21617;-71
2021/01/14 09:44:14;;;;;;;30.70;15.43;;;;;;;-1.13;86.08;98010.86;1747697;81;21139;-74
2021/01/14 09:46:45;;;;;;;34.33;16.52;;;;;;;-1.10;85.49;98008.97;1736009;80;21113;-78
2021/01/14 09:49:21;;;;;;;37.73;17.67;;;;;;;-1.10;85.17;98003.58;1745157;80;21384;-71
2021/01/14 09:51:51;;;;;;;40.10;16.93;;;;;;;-1.07;85.17;98007.87;1737526;81;21072;-73
2021/01/14 09:54:20;;;;;;;34.20;17.73;;;;;;;-1.02;85.00;98004.34;1777097;80;21611;-74
2021/01/14 09:56:54;;;;;;;41.15;22.05;;;;;;;-0.94;84.94;98006.45;1786937;80;21140;-71
2021/01/14 09:59:42;;;;;;;35.28;16.95;;;;;;;-0.93;84.63;98005.91;1781562;80;21491;-75
2021/01/14 10:02:26;;;;;;;32.10;15.43;;;;;;;-0.90;84.68;97998.08;1746865;81;21386;-73
2021/01/14 10:04:59;;;;;;;51.20;25.75;;;;;;;-0.86;84.54;97995.09;1759140;81;20992;-74
2021/01/14 10:07:27;;;;;;;38.15;17.73;;;;;;;-0.82;84.25;97993.45;1759366;81;20992;-72
2021/01/14 10:09:56;;;;;;;28.47;14.93;;;;;;;-0.84;83.60;97996.97;1759280;81;21150;-73
2021/01/14 10:12:24;;;;;;;31.93;15.05;;;;;;;-0.89;83.14;98001.58;1759391;81;21068;-78
2021/01/14 10:15:15;;;;;;;32.75;16.70;;;;;;;-0.96;82.87;97992.46;1759054;80;21204;-76
2021/01/14 10:17:42;;;;;;;33.78;18.00;;;;;;;-0.99;84.11;97994.36;1746536;80;21123;-78
2021/01/14 10:20:14;;;;;;;28.45;15.10;;;;;;;-1.00;84.07;97994.09;1727120;83;21151;-77
2021/01/14 10:22:53;;;;;;;31.55;15.75;;;;;;;-1.02;83.62;97995.72;1726754;83;21207;-75
2021/01/14 10:25:21;;;;;;;36.15;17.90;;;;;;;-1.04;83.01;97995.73;1727272;82;21147;-74
2021/01/14 10:28:03;;;;;;;36.77;17.48;;;;;;;-1.09;83.02;97989.03;1731285;80;21392;-76
2021/01/14 10:30:31;;;;;;;31.33;14.55;;;;;;;-1.11;83.05;97993.34;1748483;81;21162;-76
2021/01/14 10:33:05;;;;;;;32.08;15.30;;;;;;;-1.11;82.81;97992.54;1758063;80;21202;-80
2021/01/14 10:35:35;;;;;;;34.55;17.60;;;;;;;-1.15;82.84;97993.64;1758903;81;20996;-81
2021/01/14 10:38:15;;;;;;;37.13;18.45;;;;;;;-1.15;83.08;97988.25;1759244;80;21554;-78
2021/01/14 10:40:51;;;;;;;32.33;15.35;;;;;;;-1.14;83.01;97986.36;1758222;81;21440;-81
2021/01/14 10:43:34;;;;;;;28.67;14.98;;;;;;;-1.17;82.74;97985.06;1726805;83;21040;-79
2021/01/14 10:46:04;;;;;;;32.73;15.75;;;;;;;-1.19;82.59;97979.69;1717545;82;21595;-78
2021/01/14 10:48:39;;;;;;;30.95;15.15;;;;;;;-1.17;82.84;97977.52;1738416;81;21063;-76
2021/01/14 10:51:08;;;;;;;29.23;13.72;;;;;;;-1.16;82.78;97973.75;1735277;82;21168;-76
2021/01/14 10:53:40;;;;;;;29.52;14.20;;;;;;;-1.12;82.51;97974.77;1748372;81;21484;-75
2021/01/14 10:56:11;;;;;;;29.02;14.05;;;;;;;-1.11;82.27;97980.42;1759088;80;21000;-76
2021/01/14 10:58:40;;;;;;;28.57;14.13;;;;;;;-1.09;82.10;97972.87;1759355;80;21016;-78
2021/01/14 11:01:20;;;;;;;24.80;12.33;;;;;;;-1.07;82.32;97970.70;1756556;81;21626;-74
2021/01/14 11:03:49;;;;;;;25.92;14.00;;;;;;;-1.03;81.98;97966.37;1755206;81;21629;-72
2021/01/14 11:06:32;;;;;;;33.42;14.70;;;;;;;-1.01;81.72;97972.28;1755205;81;21226;-72
2021/01/14 11:09:03;;;;;;;28.17;13.72;;;;;;;-1.01;81.23;97966.90;1750864;80;21163;-74
2021/01/14 11:11:31;;;;;;;30.57;15.80;;;;;;;-1.04;81.29;97973.65;1738344;80;21161;-75
2021/01/14 11:13:59;;;;;;;32.10;15.45;;;;;;;-1.04;81.42;97972.30;1755361;81;21198;-76
2021/01/14 11:16:26;;;;;;;32.08;16.17;;;;;;;-1.02;81.26;97970.67;1755401;81;21164;-79
2021/01/14 11:18:56;;;;;;;42.93;19.35;;;;;;;-1.03;81.23;97973.11;1755390;81;21835;-77
2021/01/14 11:21:37;;;;;;;34.55;16.77;;;;;;;-1.03;81.15;97965.83;1755244;80;20964;-77
2021/01/14 11:24:06;;;;;;;32.50;16.93;;;;;;;-1.03;81.33;97967.72;1755464;80;21558;-77
2021/01/14 11:26:34;;;;;;;36.08;16.85;;;;;;;-1.01;81.84;97971.75;1755619;80;21063;-86
2021/01/14 11:29:01;;;;;;;31.93;13.70;;;;;;;-0.96;81.85;97966.06;1746843;80;21499;-87
2021/01/14 11:31:29;;;;;;;30.68;15.05;;;;;;;-0.95;81.37;97960.39;1739778;82;21260;-84
2021/01/14 11:33:57;;;;;;;28.25;13.90;;;;;;;-0.98;81.10;97962.30;1739668;81;21583;-83
2021/01/14 11:36:27;;;;;;;29.32;14.90;;;;;;;-1.02;80.90;97954.52;1779434;80;21116;-86
2021/01/14 11:38:56;;;;;;;32.08;13.85;;;;;;;-1.05;80.97;97957.22;1765824;80;21628;-84
2021/01/14 11:41:25;;;;;;;33.63;16.95;;;;;;;-1.06;80.99;97953.46;1752690;81;21084;-84
2021/01/14 11:43:53;;;;;;;47.27;22.22;;;;;;;-1.07;80.92;97955.89;1771036;81;21387;-86
2021/01/14 11:46:26;;;;;;;68.22;31.82;;;;;;;-1.09;80.98;97956.71;1770346;81;21025;-84